Time;durP1;ratioP1;P1;durP2;ratioP2;P2;SDS_P1;SDS_P2;PMS_P1;PMS_P2;Temp;Humidity;BMP_temperature;BMP_pressure;BME280_temperature;BME280_humidity;BME280_pressure;Samples;Min_cycle;Max_cycle;Signal;HPM_P1;HPM_P2
2021/01/24 00:03:26;;;;;;;17.73;11.15;;;2.30;99.90;;;;;;12489615;28;20081;-41
2021/01/24 00:09:27;;;;;;;21.45;10.80;;;2.30;99.90;;;;;;12487462;28;20404;-41
2021/01/24 00:15:29;;;;;;;16.20;10.40;;;2.40;99.90;;;;;;12498919;28;20049;-41
2021/01/24 00:21:30;;;;;;;18.73;11.20;;;2.50;99.90;;;;;;12478872;28;20472;-40
2021/01/24 00:27:32;;;;;;;19.13;11.50;;;2.50;99.90;;;;;;12510104;28;20044;-41
2021/01/24 00:33:33;;;;;;;18.30;12.30;;;2.40;99.90;;;;;;12497616;28;20143;-41
2021/01/24 00:39:35;;;;;;;19.20;12.10;;;2.40;99.90;;;;;;12497358;28;20408;-41
2021/01/24 00:45:36;;;;;;;19.58;11.90;;;2.30;99.90;;;;;;12497836;28;20049;-41
2021/01/24 00:51:37;;;;;;;20.63;11.77;;;2.30;99.90;;;;;;12506557;28;20048;-41
2021/01/24 00:57:39;;;;;;;19.52;12.15;;;2.40;99.90;;;;;;12513136;28;20128;-42
2021/01/24 01:03:40;;;;;;;19.30;12.15;;;2.30;99.90;;;;;;12491416;28;20507;-41
2021/01/24 01:09:42;;;;;;;21.50;11.38;;;2.30;99.90;;;;;;12505848;28;20135;-42
2021/01/24 01:15:43;;;;;;;16.08;10.38;;;2.30;99.90;;;;;;12484609;28;20657;-41
2021/01/24 01:21:44;;;;;;;16.88;10.90;;;2.30;99.90;;;;;;12491676;28;20171;-41
2021/01/24 01:27:45;;;;;;;14.57;9.23;;;2.40;99.90;;;;;;12492819;28;20416;-41
2021/01/24 01:33:47;;;;;;;13.93;8.80;;;2.50;99.90;;;;;;12480267;28;20080;-41
2021/01/24 01:39:48;;;;;;;14.60;9.75;;;2.60;99.90;;;;;;12484647;28;20462;-41
2021/01/24 01:45:49;;;;;;;15.05;8.70;;;2.60;99.90;;;;;;12459773;28;20079;-41
2021/01/24 01:51:51;;;;;;;14.32;8.68;;;2.60;99.90;;;;;;12469880;28;20498;-42
2021/01/24 01:57:53;;;;;;;14.70;9.45;;;2.50;99.90;;;;;;12443427;28;20477;-41
2021/01/24 02:04:10;;;;;;;13.50;9.50;;;2.50;99.90;;;;;;12453017;28;20122;-41
2021/01/24 02:10:27;;;;;;;16.40;10.02;;;2.50;99.90;;;;;;12452080;28;20045;-41
2021/01/24 02:16:34;;;;;;;15.85;10.38;;;2.50;99.90;;;;;;12463655;28;20045;-41
2021/01/24 02:22:40;;;;;;;20.20;10.88;;;2.50;99.90;;;;;;12500856;28;20057;-41
2021/01/24 02:28:53;;;;;;;20.23;11.25;;;2.40;99.90;;;;;;12502656;28;20124;-41
2021/01/24 02:34:56;;;;;;;17.33;11.50;;;2.30;99.90;;;;;;12504027;28;20455;-41
2021/01/24 02:40:59;;;;;;;19.95;12.57;;;2.20;99.90;;;;;;12494103;28;20508;-41
2021/01/24 02:47:01;;;;;;;19.60;12.63;;;2.30;99.90;;;;;;12478963;28;20053;-41
2021/01/24 02:53:04;;;;;;;22.85;13.07;;;2.30;99.90;;;;;;12473105;28;20048;-40
2021/01/24 02:59:06;;;;;;;24.88;13.65;;;2.20;99.90;;;;;;12476578;28;21118;-41
2021/01/24 03:05:08;;;;;;;23.75;13.45;;;2.20;99.90;;;;;;12488396;28;20049;-41
2021/01/24 03:11:13;;;;;;;21.50;13.82;;;2.20;99.90;;;;;;12484724;28;20104;-41
2021/01/24 03:17:16;;;;;;;20.23;13.25;;;2.20;99.90;;;;;;12495761;28;20144;-41
2021/01/24 03:23:19;;;;;;;22.58;13.35;;;2.20;99.90;;;;;;12472490;28;20047;-41
2021/01/24 03:29:20;;;;;;;21.63;13.68;;;2.20;99.90;;;;;;12472884;28;20183;-42
2021/01/24 03:35:22;;;;;;;24.88;13.73;;;2.10;99.90;;;;;;12481035;28;20546;-42
2021/01/24 03:41:23;;;;;;;22.25;13.68;;;2.00;99.90;;;;;;12476803;28;20136;-41
2021/01/24 03:47:24;;;;;;;22.05;14.52;;;2.00;99.90;;;;;;12485711;28;20166;-41
2021/01/24 03:53:26;;;;;;;21.60;13.68;;;1.90;99.90;;;;;;12486188;28;20500;-42
2021/01/24 03:59:28;;;;;;;20.27;13.45;;;1.80;99.90;;;;;;12484182;28;20054;-41
2021/01/24 04:05:29;;;;;;;22.42;13.57;;;1.70;99.90;;;;;;12484915;28;20077;-42
2021/01/24 04:11:30;;;;;;;22.52;14.02;;;1.70;99.90;;;;;;12480322;28;20064;-42
2021/01/24 04:17:32;;;;;;;22.63;13.70;;;1.70;99.90;;;;;;12497355;28;20041;-42
2021/01/24 04:23:33;;;;;;;22.30;14.40;;;1.60;99.90;;;;;;12504021;28;20041;-41
2021/01/24 04:29:35;;;;;;;26.40;14.55;;;1.50;99.90;;;;;;12507492;28;20053;-42
2021/01/24 04:35:36;;;;;;;21.52;13.93;;;1.50;99.90;;;;;;12503803;28;20076;-42
2021/01/24 04:41:38;;;;;;;23.75;13.05;;;1.50;99.90;;;;;;12502829;28;20048;-41
2021/01/24 04:47:41;;;;;;;20.15;13.18;;;1.40;99.90;;;;;;12493302;28;20143;-42
2021/01/24 04:53:42;;;;;;;21.17;12.73;;;1.40;99.90;;;;;;12505970;28;20470;-42
2021/01/24 04:59:44;;;;;;;19.67;11.85;;;1.30;99.90;;;;;;12489210;28;20436;-42
2021/01/24 05:05:45;;;;;;;18.23;11.18;;;1.30;99.90;;;;;;12488019;28;20094;-41
2021/01/24 05:11:51;;;;;;;21.20;11.82;;;1.40;99.90;;;;;;12468126;28;20067;-42
2021/01/24 05:17:56;;;;;;;20.15;11.95;;;1.30;99.90;;;;;;12496869;28;20140;-41
2021/01/24 05:23:58;;;;;;;18.45;10.82;;;1.40;99.90;;;;;;12503432;28;20053;-42
2021/01/24 05:29:59;;;;;;;17.42;10.50;;;1.50;99.90;;;;;;12499739;28;20056;-42
2021/01/24 05:36:06;;;;;;;17.88;10.35;;;1.50;99.90;;;;;;12499782;28;20205;-42
2021/01/24 05:42:07;;;;;;;17.63;10.57;;;1.70;99.90;;;;;;12475967;28;20056;-42
2021/01/24 05:48:09;;;;;;;20.55;11.10;;;1.70;99.90;;;;;;12503699;28;20085;-41
2021/01/24 05:54:11;;;;;;;17.98;11.13;;;1.70;99.90;;;;;;12503370;28;20045;-42
2021/01/24 06:00:13;;;;;;;16.15;10.50;;;1.60;99.90;;;;;;12503025;28;20060;-42
2021/01/24 06:06:16;;;;;;;13.93;9.57;;;1.90;99.90;;;;;;12498912;28;20044;-41
2021/01/24 06:12:22;;;;;;;15.35;10.85;;;1.90;99.90;;;;;;12501468;28;20151;-42
2021/01/24 06:18:49;;;;;;;17.60;11.23;;;1.80;99.90;;;;;;12498486;28;20140;-42
2021/01/24 06:24:55;;;;;;;17.77;11.02;;;1.80;99.90;;;;;;12506058;28;20037;-42
2021/01/24 06:30:59;;;;;;;19.67;11.23;;;1.70;99.90;;;;;;12502537;28;20069;-42
2021/01/24 06:37:05;;;;;;;18.55;12.57;;;1.70;99.90;;;;;;12498917;28;20076;-42
2021/01/24 06:43:06;;;;;;;19.40;12.75;;;1.70;99.90;;;;;;12493164;28;20136;-42
2021/01/24 06:49:08;;;;;;;18.83;11.68;;;1.80;99.90;;;;;;12503118;28;20056;-42
2021/01/24 06:55:28;;;;;;;17.63;11.32;;;1.70;99.90;;;;;;12503292;28;20057;-42
2021/01/24 07:01:49;;;;;;;18.55;11.43;;;1.70;99.90;;;;;;12508950;28;20084;-42
2021/01/24 07:07:55;;;;;;;19.80;12.25;;;1.70;99.90;;;;;;12504561;28;20763;-42
2021/01/24 07:13:56;;;;;;;21.58;11.98;;;1.70;99.90;;;;;;12505485;28;20037;-42
2021/01/24 07:19:58;;;;;;;22.20;12.27;;;1.70;99.90;;;;;;12499525;28;20076;-42
2021/01/24 07:26:01;;;;;;;21.63;13.05;;;1.80;99.90;;;;;;12504182;28;20156;-42
2021/01/24 07:32:11;;;;;;;21.60;13.05;;;1.80;99.90;;;;;;12499941;28;20068;-42
2021/01/24 07:38:15;;;;;;;20.58;13.77;;;1.80;99.90;;;;;;12499798;28;20402;-42
2021/01/24 07:44:19;;;;;;;25.65;14.25;;;1.90;99.90;;;;;;12489258;28;20053;-42
2021/01/24 07:50:20;;;;;;;19.85;12.85;;;2.00;99.90;;;;;;12501507;28;20199;-42
2021/01/24 07:56:22;;;;;;;19.60;12.20;;;2.10;99.90;;;;;;12509647;28;20076;-42
2021/01/24 08:02:26;;;;;;;20.67;12.32;;;2.20;99.90;;;;;;12491935;28;20129;-42
2021/01/24 08:08:27;;;;;;;21.13;13.33;;;2.20;99.90;;;;;;12500599;28;20061;-42
2021/01/24 08:14:29;;;;;;;19.65;12.77;;;2.30;99.90;;;;;;12495895;28;20428;-42
2021/01/24 08:20:30;;;;;;;18.02;11.25;;;2.40;99.90;;;;;;12501437;28;20049;-42
2021/01/24 08:26:34;;;;;;;18.40;11.07;;;2.40;99.90;;;;;;12508309;28;20091;-41
2021/01/24 08:32:38;;;;;;;16.08;10.95;;;2.30;99.90;;;;;;12501992;28;20871;-42
2021/01/24 08:38:41;;;;;;;16.70;10.43;;;2.30;99.90;;;;;;12504156;28;20053;-42
2021/01/24 08:45:05;;;;;;;17.77;10.40;;;2.30;99.90;;;;;;12504092;28;20514;-42
2021/01/24 08:51:08;;;;;;;16.37;10.47;;;2.30;99.90;;;;;;12506793;28;20095;-42
2021/01/24 08:57:18;;;;;;;16.83;10.82;;;2.40;99.90;;;;;;12500543;28;20095;-42
2021/01/24 09:03:23;;;;;;;24.63;14.18;;;2.50;99.90;;;;;;12501370;28;20100;-42
2021/01/24 09:09:28;;;;;;;23.48;14.32;;;2.40;99.90;;;;;;12500199;28;20076;-42
2021/01/24 09:15:30;;;;;;;;;;;2.40;99.90;;;;;;12493312;28;21719;-42
2021/01/24 09:21:31;;;;;;;29.40;17.02;;;2.40;99.90;;;;;;12496097;28;19963;-42
2021/01/24 09:27:34;;;;;;;29.85;19.05;;;2.50;99.90;;;;;;12496022;28;20049;-42
2021/01/24 09:33:35;;;;;;;39.17;21.45;;;2.60;99.90;;;;;;12495542;28;20562;-42
2021/01/24 09:39:37;;;;;;;39.58;23.67;;;2.60;99.90;;;;;;12487425;28;20611;-42
2021/01/24 09:45:38;;;;;;;42.40;24.65;;;2.70;99.90;;;;;;12475996;28;20045;-42
2021/01/24 09:51:43;;;;;;;;;;;2.80;99.90;;;;;;12497637;28;20458;-42
2021/01/24 09:57:44;;;;;;;39.90;23.55;;;2.90;99.90;;;;;;12495099;28;20440;-42
2021/01/24 10:03:47;;;;;;;44.55;26.23;;;3.10;99.90;;;;;;12496856;28;20128;-42
2021/01/24 10:09:48;;;;;;;39.80;24.50;;;3.20;99.90;;;;;;12492780;28;20051;-42
2021/01/24 10:15:51;;;;;;;39.25;23.88;;;3.20;99.90;;;;;;12491112;28;20121;-42
2021/01/24 10:21:53;;;;;;;40.33;23.02;;;3.30;99.90;;;;;;12485273;28;20052;-41
2021/01/24 10:27:54;;;;;;;36.45;22.95;;;3.40;99.90;;;;;;12501294;28;20064;-42
2021/01/24 10:33:56;;;;;;;38.53;22.73;;;3.40;99.90;;;;;;12488583;28;20449;-42
2021/01/24 10:39:57;;;;;;;35.78;22.92;;;3.40;99.90;;;;;;12487228;28;20045;-42
2021/01/24 10:45:58;;;;;;;43.67;26.10;;;3.40;99.90;;;;;;12499235;28;20053;-42
2021/01/24 10:52:00;;;;;;;42.20;24.27;;;3.40;99.90;;;;;;12494209;28;20045;-42
2021/01/24 10:58:02;;;;;;;41.72;25.20;;;3.40;99.90;;;;;;12492157;28;20674;-42
2021/01/24 11:04:03;;;;;;;48.00;26.35;;;3.40;99.90;;;;;;12474497;28;20581;-42
2021/01/24 11:10:07;;;;;;;42.22;25.20;;;3.40;99.90;;;;;;12491514;28;20064;-42
2021/01/24 11:16:08;;;;;;;45.45;26.77;;;3.40;99.90;;;;;;12496859;28;20059;-42
2021/01/24 11:22:10;;;;;;;51.97;29.67;;;3.40;99.90;;;;;;12491501;28;20049;-42
2021/01/24 11:28:11;;;;;;;46.47;28.83;;;3.50;99.90;;;;;;12498299;28;20078;-42
2021/01/24 11:34:13;;;;;;;48.35;29.05;;;3.40;99.90;;;;;;12495144;28;20055;-42
2021/01/24 11:40:14;;;;;;;54.33;31.73;;;3.30;99.90;;;;;;12483748;28;20124;-42
2021/01/24 11:46:16;;;;;;;57.15;32.33;;;3.30;99.90;;;;;;12498750;28;20055;-42
2021/01/24 11:52:17;;;;;;;62.70;34.45;;;3.40;99.90;;;;;;12500649;28;20586;-42
2021/01/24 11:58:20;;;;;;;59.30;35.08;;;3.40;99.90;;;;;;12493054;28;20113;-42
2021/01/24 12:04:21;;;;;;;56.65;32.50;;;3.20;99.90;;;;;;12486024;28;20048;-42
2021/01/24 12:10:22;;;;;;;59.08;33.78;;;3.20;99.90;;;;;;12504879;28;20136;-42
2021/01/24 12:16:24;;;;;;;50.83;30.38;;;3.40;99.90;;;;;;12499764;28;20128;-42
2021/01/24 12:22:25;;;;;;;46.63;26.67;;;3.40;99.90;;;;;;12500969;28;20052;-42
2021/01/24 12:28:27;;;;;;;34.17;21.40;;;3.50;99.90;;;;;;12508039;28;20693;-42
2021/01/24 12:34:28;;;;;;;28.80;18.75;;;3.40;99.90;;;;;;12501521;28;20198;-42
2021/01/24 12:40:29;;;;;;;28.55;17.35;;;3.50;99.90;;;;;;12500829;28;20178;-42
2021/01/24 12:46:30;;;;;;;23.60;15.45;;;3.50;99.90;;;;;;12501784;28;20059;-42
2021/01/24 12:52:32;;;;;;;22.58;14.23;;;3.40;99.90;;;;;;12500767;28;20382;-42
2021/01/24 12:58:33;;;;;;;20.65;13.88;;;3.40;99.90;;;;;;12495415;28;20040;-42
2021/01/24 13:04:34;;;;;;;24.00;13.95;;;3.40;99.90;;;;;;12496922;28;20041;-42
2021/01/24 13:10:36;;;;;;;22.83;14.73;;;3.50;99.90;;;;;;12481686;28;20060;-42
2021/01/24 13:16:37;;;;;;;23.73;14.48;;;3.60;99.90;;;;;;12509040;28;20076;-41
2021/01/24 13:22:41;;;;;;;22.88;13.63;;;3.60;99.90;;;;;;12500766;28;20381;-42
2021/01/24 13:28:42;;;;;;;23.30;14.30;;;3.70;99.90;;;;;;12491152;28;20057;-42
2021/01/24 13:34:44;;;;;;;28.42;14.73;;;3.60;99.90;;;;;;12494275;28;20482;-42
2021/01/24 13:40:46;;;;;;;24.95;14.65;;;3.50;99.90;;;;;;12487506;28;20486;-42
2021/01/24 13:46:48;;;;;;;28.75;16.23;;;3.50;99.90;;;;;;12499663;28;20052;-42
2021/01/24 13:52:50;;;;;;;34.42;16.90;;;3.40;99.90;;;;;;12497436;28;20057;-42
2021/01/24 13:58:52;;;;;;;29.02;16.15;;;3.50;99.90;;;;;;12486695;28;20041;-42
2021/01/24 14:04:53;;;;;;;27.90;16.40;;;3.90;99.90;;;;;;12493602;28;20036;-42
2021/01/24 14:10:57;;;;;;;23.58;14.70;;;4.00;99.90;;;;;;12481502;28;20383;-42
2021/01/24 14:16:59;;;;;;;20.65;13.20;;;4.10;99.90;;;;;;12504616;28;20049;-42
2021/01/24 14:23:01;;;;;;;20.30;12.95;;;4.20;99.90;;;;;;12491223;28;20045;-42
2021/01/24 14:29:02;;;;;;;19.63;11.77;;;4.20;99.90;;;;;;12509348;28;20558;-42
2021/01/24 14:35:04;;;;;;;16.20;10.90;;;4.10;99.90;;;;;;12503687;28;20044;-42
2021/01/24 14:41:08;;;;;;;18.70;9.95;;;3.90;99.90;;;;;;12489858;28;20053;-42
2021/01/24 14:47:10;;;;;;;16.35;9.15;;;3.80;99.90;;;;;;12499142;28;20049;-42
2021/01/24 14:53:11;;;;;;;13.93;7.07;;;3.60;99.90;;;;;;12498366;28;20099;-42
2021/01/24 14:59:12;;;;;;;11.57;7.10;;;3.60;99.90;;;;;;12488618;28;20049;-42
2021/01/24 15:05:14;;;;;;;14.38;7.90;;;3.50;99.90;;;;;;12497581;28;20049;-42
2021/01/24 15:11:15;;;;;;;17.33;8.32;;;3.50;99.90;;;;;;12497211;28;20863;-42
2021/01/24 15:17:16;;;;;;;13.57;7.10;;;3.50;99.90;;;;;;12492270;28;20106;-41
2021/01/24 15:23:18;;;;;;;14.38;6.50;;;3.40;99.90;;;;;;12509798;28;20214;-42
2021/01/24 15:29:20;;;;;;;11.45;6.82;;;3.40;99.90;;;;;;12512812;28;20080;-42
2021/01/24 15:35:22;;;;;;;15.32;8.50;;;3.20;99.90;;;;;;12501096;28;20056;-42
2021/01/24 15:41:23;;;;;;;15.13;8.32;;;2.90;99.90;;;;;;12478351;28;20473;-42
2021/01/24 15:47:24;;;;;;;16.85;8.75;;;2.80;99.90;;;;;;12503811;28;20098;-42
2021/01/24 15:53:27;;;;;;;10.70;6.40;;;2.80;99.90;;;;;;12509504;28;20402;-42
2021/01/24 15:59:28;;;;;;;12.20;6.32;;;3.00;99.90;;;;;;12496939;28;20089;-42
2021/01/24 16:05:30;;;;;;;10.70;6.15;;;3.00;99.90;;;;;;12491146;28;20049;-42
2021/01/24 16:11:31;;;;;;;11.05;6.13;;;2.80;99.90;;;;;;12498530;28;20140;-42
2021/01/24 16:17:32;;;;;;;12.35;6.13;;;2.70;99.90;;;;;;12478644;28;20144;-42
2021/01/24 16:23:34;;;;;;;8.48;5.35;;;2.40;99.90;;;;;;12511990;28;20041;-42
2021/01/24 16:29:35;;;;;;;10.07;5.50;;;2.30;99.90;;;;;;12504568;28;20072;-42
2021/01/24 16:35:36;;;;;;;11.00;6.05;;;2.10;99.90;;;;;;12504561;28;20037;-42
2021/01/24 16:41:44;;;;;;;13.50;6.32;;;1.90;99.90;;;;;;12474368;28;20041;-42
2021/01/24 16:47:47;;;;;;;8.88;5.05;;;1.90;99.90;;;;;;12505901;28;20139;-42
2021/01/24 16:53:48;;;;;;;12.02;5.43;;;1.90;99.90;;;;;;12511307;28;20094;-42
2021/01/24 16:59:50;;;;;;;10.20;5.90;;;1.90;99.90;;;;;;12489845;28;20164;-42
2021/01/24 17:05:51;;;;;;;13.27;6.18;;;1.90;99.90;;;;;;12493522;28;20079;-42
2021/01/24 17:11:52;;;;;;;10.95;5.10;;;2.00;99.90;;;;;;12504344;28;20123;-42
2021/01/24 17:17:54;;;;;;;9.88;5.07;;;2.10;99.90;;;;;;12491677;28;20143;-42
2021/01/24 17:23:58;;;;;;;11.82;5.60;;;2.00;99.90;;;;;;12500791;28;20044;-42
2021/01/24 17:30:00;;;;;;;13.45;7.55;;;2.00;99.90;;;;;;12505732;28;20493;-42
2021/01/24 17:36:01;;;;;;;9.80;6.45;;;2.00;99.90;;;;;;12494441;28;20131;-42
2021/01/24 17:42:02;;;;;;;11.43;6.07;;;2.10;99.90;;;;;;12490373;28;20541;-42
2021/01/24 17:48:04;;;;;;;12.38;7.07;;;2.00;99.90;;;;;;12501358;28;20130;-42
2021/01/24 17:54:06;;;;;;;11.70;7.50;;;1.90;99.90;;;;;;12497857;28;20135;-42
2021/01/24 18:00:08;;;;;;;11.77;5.35;;;1.80;99.90;;;;;;12490514;28;20136;-42
2021/01/24 18:06:11;;;;;;;8.93;4.57;;;1.80;99.90;;;;;;12485992;28;20045;-42
2021/01/24 18:12:15;;;;;;;5.55;3.63;;;1.90;99.90;;;;;;12488227;28;20041;-42
2021/01/24 18:18:16;;;;;;;10.13;3.30;;;1.70;99.90;;;;;;12493303;28;20069;-42
2021/01/24 18:24:18;;;;;;;5.78;3.30;;;1.50;99.90;;;;;;12495218;28;23304;-42
2021/01/24 18:30:22;;;;;;;6.90;3.15;;;1.40;99.90;;;;;;12493399;28;20147;-42
2021/01/24 18:36:24;;;;;;;6.77;4.00;;;1.30;99.90;;;;;;12487322;28;20452;-42
2021/01/24 18:42:25;;;;;;;9.00;5.35;;;1.30;99.90;;;;;;12487688;28;20477;-42
2021/01/24 18:48:26;;;;;;;9.70;6.38;;;1.20;99.90;;;;;;12501380;28;20140;-42
2021/01/24 18:54:28;;;;;;;12.32;7.07;;;1.20;99.90;;;;;;12492114;28;20696;-42
2021/01/24 19:00:29;;;;;;;15.00;8.80;;;1.10;99.90;;;;;;12490611;28;20094;-42
2021/01/24 19:06:30;;;;;;;19.15;9.68;;;1.10;99.90;;;;;;12495833;28;20060;-42
2021/01/24 19:12:32;;;;;;;20.50;12.18;;;1.00;99.90;;;;;;12500565;28;20090;-42
2021/01/24 19:18:33;;;;;;;27.98;16.15;;;1.00;99.90;;;;;;12490875;28;20053;-42
2021/01/24 19:24:35;;;;;;;35.10;20.00;;;1.00;99.90;;;;;;12510797;28;20044;-42
2021/01/24 19:30:36;;;;;;;35.58;19.30;;;1.10;99.90;;;;;;12503651;28;20082;-42
2021/01/24 19:36:38;;;;;;;39.20;22.35;;;1.00;99.90;;;;;;12493244;28;20090;-42
2021/01/24 19:42:39;;;;;;;40.53;24.30;;;1.00;99.90;;;;;;12489239;28;20136;-42
2021/01/24 19:48:40;;;;;;;50.55;25.13;;;1.00;99.90;;;;;;12486287;28;20041;-42
2021/01/24 19:54:42;;;;;;;50.75;27.67;;;0.90;99.90;;;;;;12499859;28;20045;-42
2021/01/24 20:00:43;;;;;;;59.47;29.27;;;1.00;99.90;;;;;;12493837;28;20094;-42
2021/01/24 20:06:45;;;;;;;63.10;32.40;;;1.10;99.90;;;;;;12488869;28;20044;-42
2021/01/24 20:12:46;;;;;;;54.38;29.80;;;1.20;99.90;;;;;;12503651;28;20052;-42
2021/01/24 20:18:49;;;;;;;65.53;32.90;;;1.20;99.90;;;;;;12495721;28;20092;-42
2021/01/24 20:24:50;;;;;;;66.93;32.25;;;1.30;99.90;;;;;;12501928;28;20136;-42
2021/01/24 20:30:51;;;;;;;57.22;31.20;;;1.30;99.90;;;;;;12510570;28;20045;-42
2021/01/24 20:36:54;;;;;;;63.03;33.00;;;1.40;99.90;;;;;;12506909;28;20498;-42
2021/01/24 20:42:55;;;;;;;70.50;34.63;;;1.40;99.90;;;;;;12497140;28;20131;-42
2021/01/24 20:48:57;;;;;;;65.70;33.08;;;1.30;99.90;;;;;;12503941;28;20200;-42
2021/01/24 20:55:00;;;;;;;60.17;31.38;;;1.30;99.90;;;;;;12500394;28;20080;-42
2021/01/24 21:01:02;;;;;;;66.78;33.78;;;1.30;99.90;;;;;;12498034;28;20056;-42
2021/01/24 21:07:04;;;;;;;63.72;33.60;;;1.20;99.90;;;;;;12503165;28;20060;-42
2021/01/24 21:13:06;;;;;;;60.92;33.22;;;1.30;99.90;;;;;;12487042;28;20135;-42
2021/01/24 21:19:07;;;;;;;61.97;30.92;;;1.20;99.90;;;;;;12500301;28;20044;-42
2021/01/24 21:25:09;;;;;;;59.00;31.10;;;1.10;99.90;;;;;;12508146;28;20048;-42
2021/01/24 21:31:10;;;;;;;56.88;30.65;;;1.10;99.90;;;;;;12453834;28;20042;-42
2021/01/24 21:37:12;;;;;;;62.50;31.08;;;1.10;99.90;;;;;;12438038;28;20086;-42
2021/01/24 21:43:17;;;;;;;65.72;33.10;;;1.10;99.90;;;;;;12439316;28;20140;-42
2021/01/24 21:49:18;;;;;;;56.15;30.65;;;1.10;99.90;;;;;;12461432;28;20053;-42
2021/01/24 21:55:20;;;;;;;64.55;32.05;;;1.10;99.90;;;;;;12462468;28;20076;-42
2021/01/24 22:01:21;;;;;;;66.85;32.40;;;1.00;99.90;;;;;;12427973;28;20468;-42
2021/01/24 22:07:22;;;;;;;57.92;30.35;;;0.90;99.90;;;;;;12436045;28;20081;-42
2021/01/24 22:13:24;;;;;;;54.53;29.38;;;0.90;99.90;;;;;;12441126;28;20049;-42
2021/01/24 22:19:25;;;;;;;53.42;29.13;;;0.90;99.90;;;;;;12441246;28;20141;-42
2021/01/24 22:25:26;;;;;;;59.63;29.33;;;0.90;99.90;;;;;;12460995;28;20128;-42
2021/01/24 22:31:28;;;;;;;52.97;26.98;;;0.80;99.90;;;;;;12493602;28;20102;-42
2021/01/24 22:37:29;;;;;;;52.85;27.15;;;0.80;99.90;;;;;;12467199;28;20127;-42
2021/01/24 22:43:31;;;;;;;52.28;26.77;;;0.80;99.90;;;;;;12462329;28;20792;-42
2021/01/24 22:49:32;;;;;;;49.80;26.55;;;0.80;99.90;;;;;;12479588;28;20089;-42
2021/01/24 22:55:33;;;;;;;52.08;26.15;;;0.80;99.90;;;;;;12491287;28;20045;-42
2021/01/24 23:01:36;;;;;;;45.50;23.70;;;0.80;99.90;;;;;;12489609;28;20436;-42
2021/01/24 23:07:37;;;;;;;44.00;23.85;;;0.70;99.90;;;;;;12484236;28;20057;-42
2021/01/24 23:13:39;;;;;;;48.03;23.05;;;0.70;99.90;;;;;;12502632;28;20113;-42
2021/01/24 23:19:41;;;;;;;42.42;23.13;;;0.70;99.90;;;;;;12492508;28;20121;-42
2021/01/24 23:25:43;;;;;;;45.05;23.25;;;0.60;99.90;;;;;;12502186;28;20053;-42
2021/01/24 23:31:45;;;;;;;45.42;23.80;;;0.60;99.90;;;;;;12489684;28;20171;-42
2021/01/24 23:37:46;;;;;;;45.03;23.52;;;0.50;99.90;;;;;;12508925;28;21185;-42
2021/01/24 23:43:48;;;;;;;47.88;23.17;;;0.50;99.90;;;;;;12497051;28;20053;-42
2021/01/24 23:49:49;;;;;;;48.78;23.77;;;0.50;99.90;;;;;;12506606;28;20135;-42
2021/01/24 23:55:50;;;;;;;43.85;21.48;;;0.40;99.90;;;;;;12532478;28;20094;-42
